Time;durP1;ratioP1;P1;durP2;ratioP2;P2;SDS_P1;SDS_P2;PMS_P1;PMS_P2;Temp;Humidity;BMP_temperature;BMP_pressure;BME280_temperature;BME280_humidity;BME280_pressure;Samples;Min_cycle;Max_cycle;Signal;HPM_P1;HPM_P2
2021/03/20 00:01:13;;;;;;;13.30;6.45;;;;;;;;;;4978887;28;20054;-82
2021/03/20 00:03:40;;;;;;;12.70;7.38;;;;;;;;;;4983617;28;20103;-83
2021/03/20 00:06:06;;;;;;;11.82;6.88;;;;;;;;;;4969777;28;20462;-82
2021/03/20 00:08:33;;;;;;;12.07;6.78;;;;;;;;;;4979128;28;20083;-82
2021/03/20 00:10:59;;;;;;;13.82;6.43;;;;;;;;;;4975027;28;20043;-83
2021/03/20 00:13:25;;;;;;;12.05;7.05;;;;;;;;;;4980440;28;20107;-82
2021/03/20 00:15:53;;;;;;;12.95;7.88;;;;;;;;;;4990826;28;20054;-82
2021/03/20 00:18:20;;;;;;;12.35;7.43;;;;;;;;;;4983067;28;20115;-82
2021/03/20 00:20:47;;;;;;;12.48;7.57;;;;;;;;;;4978215;28;20043;-82
2021/03/20 00:23:13;;;;;;;16.00;7.72;;;;;;;;;;4980492;28;20506;-82
2021/03/20 00:25:39;;;;;;;14.18;8.07;;;;;;;;;;4982325;28;20530;-81
2021/03/20 00:28:08;;;;;;;14.23;8.02;;;;;;;;;;4979969;28;20055;-82
2021/03/20 00:30:34;;;;;;;13.60;7.55;;;;;;;;;;4976565;28;20050;-81
2021/03/20 00:33:00;;;;;;;13.73;8.55;;;;;;;;;;4979051;28;20047;-82
2021/03/20 00:35:26;;;;;;;11.30;6.95;;;;;;;;;;4982575;28;20054;-82
2021/03/20 00:37:55;;;;;;;13.75;7.28;;;;;;;;;;4994060;28;20055;-82
2021/03/20 00:40:25;;;;;;;12.90;7.68;;;;;;;;;;4985283;28;20065;-81
2021/03/20 00:42:52;;;;;;;15.60;8.35;;;;;;;;;;4981141;28;20077;-82
2021/03/20 00:45:19;;;;;;;15.77;9.35;;;;;;;;;;4993223;28;20050;-81
2021/03/20 00:47:45;;;;;;;13.23;7.50;;;;;;;;;;4993654;28;20058;-82
2021/03/20 00:50:13;;;;;;;14.23;8.25;;;;;;;;;;4975551;28;20102;-81
2021/03/20 00:52:40;;;;;;;14.73;7.95;;;;;;;;;;4987471;28;20304;-82
2021/03/20 00:55:08;;;;;;;13.85;6.63;;;;;;;;;;4993315;28;20130;-81
2021/03/20 00:57:34;;;;;;;11.23;7.88;;;;;;;;;;4975924;28;20642;-82
2021/03/20 01:00:00;;;;;;;14.23;8.30;;;;;;;;;;4970752;28;20043;-82
2021/03/20 01:02:26;;;;;;;12.95;7.10;;;;;;;;;;4992043;28;20077;-81
2021/03/20 01:04:52;;;;;;;14.30;7.93;;;;;;;;;;4968644;28;20091;-82
2021/03/20 01:07:19;;;;;;;14.48;8.85;;;;;;;;;;4979616;28;20050;-82
2021/03/20 01:09:45;;;;;;;13.43;7.93;;;;;;;;;;4980342;28;20047;-82
2021/03/20 01:12:12;;;;;;;15.30;7.78;;;;;;;;;;4977372;28;20051;-82
2021/03/20 01:14:38;;;;;;;15.27;9.02;;;;;;;;;;4997297;28;20057;-82
2021/03/20 01:17:04;;;;;;;14.68;7.88;;;;;;;;;;4983594;28;20051;-81
2021/03/20 01:19:30;;;;;;;15.55;8.93;;;;;;;;;;4962615;28;20140;-82
2021/03/20 01:21:56;;;;;;;14.07;8.27;;;;;;;;;;4976122;28;20097;-81
2021/03/20 01:24:22;;;;;;;13.82;8.13;;;;;;;;;;4989368;28;20050;-82
2021/03/20 01:26:48;;;;;;;15.90;8.13;;;;;;;;;;4978052;28;20055;-81
2021/03/20 01:29:15;;;;;;;13.48;8.10;;;;;;;;;;4978760;28;20043;-82
2021/03/20 01:31:41;;;;;;;13.48;7.47;;;;;;;;;;4980824;28;20055;-82
2021/03/20 01:34:07;;;;;;;17.17;9.20;;;;;;;;;;4981372;28;20545;-82
2021/03/20 01:36:33;;;;;;;14.30;8.30;;;;;;;;;;4981774;28;20105;-82
2021/03/20 01:38:59;;;;;;;13.45;8.75;;;;;;;;;;4965915;28;20260;-81
2021/03/20 01:41:26;;;;;;;15.60;9.77;;;;;;;;;;4993254;28;20078;-82
2021/03/20 01:43:53;;;;;;;15.18;8.07;;;;;;;;;;4979414;28;20054;-82
2021/03/20 01:46:42;;;;;;;15.98;8.70;;;;;;;;;;4989674;28;20046;-82
2021/03/20 01:49:24;;;;;;;16.10;8.35;;;;;;;;;;4971809;28;20418;-82
2021/03/20 01:51:56;;;;;;;17.13;8.13;;;;;;;;;;4979495;28;20046;-82
2021/03/20 01:54:22;;;;;;;13.23;7.90;;;;;;;;;;4978925;28;20435;-81
2021/03/20 01:56:49;;;;;;;17.35;9.05;;;;;;;;;;4978371;28;20402;-82
2021/03/20 01:59:15;;;;;;;16.48;7.88;;;;;;;;;;4963068;28;20484;-82
2021/03/20 02:01:42;;;;;;;14.15;8.68;;;;;;;;;;4971386;28;20075;-81
2021/03/20 02:04:09;;;;;;;13.13;7.63;;;;;;;;;;4968552;28;20054;-82
2021/03/20 02:06:35;;;;;;;12.55;7.75;;;;;;;;;;4973187;28;20051;-82
2021/03/20 02:09:05;;;;;;;13.85;7.93;;;;;;;;;;4976609;28;20047;-81
2021/03/20 02:11:33;;;;;;;13.63;7.47;;;;;;;;;;4978946;28;20384;-81
2021/03/20 02:14:07;;;;;;;11.65;7.32;;;;;;;;;;4978575;28;20051;-81
2021/03/20 02:16:37;;;;;;;15.57;8.50;;;;;;;;;;4978180;28;20074;-82
2021/03/20 02:19:14;;;;;;;14.20;8.85;;;;;;;;;;4972366;28;20055;-82
2021/03/20 02:21:42;;;;;;;12.63;6.85;;;;;;;;;;4959513;29;20055;-82
2021/03/20 02:24:44;;;;;;;13.02;7.72;;;;;;;;;;4959255;29;20055;-83
2021/03/20 02:28:01;;;;;;;14.73;8.25;;;;;;;;;;4976300;28;20058;-81
2021/03/20 02:30:55;;;;;;;11.93;7.03;;;;;;;;;;4971227;28;20141;-82
2021/03/20 02:33:29;;;;;;;11.93;6.65;;;;;;;;;;4968381;28;20051;-83
2021/03/20 02:36:10;;;;;;;12.13;8.18;;;;;;;;;;4958995;29;20051;-83
2021/03/20 02:38:41;;;;;;;12.80;6.85;;;;;;;;;;4958871;29;20058;-83
2021/03/20 02:41:14;;;;;;;13.35;6.47;;;;;;;;;;4970829;28;20451;-84
2021/03/20 02:43:46;;;;;;;12.10;6.32;;;;;;;;;;4966341;28;20499;-83
2021/03/20 02:46:20;;;;;;;12.15;8.10;;;;;;;;;;4978249;28;20050;-83
2021/03/20 02:48:51;;;;;;;10.80;6.53;;;;;;;;;;4977764;28;20109;-83
2021/03/20 02:51:22;;;;;;;12.60;6.55;;;;;;;;;;4978369;28;20050;-83
2021/03/20 02:53:53;;;;;;;10.77;6.55;;;;;;;;;;4980071;28;20054;-84
2021/03/20 02:56:35;;;;;;;11.23;6.82;;;;;;;;;;4978562;28;20053;-83
2021/03/20 02:59:06;;;;;;;11.13;6.43;;;;;;;;;;4977317;28;20047;-83
2021/03/20 03:01:33;;;;;;;10.65;6.57;;;;;;;;;;4977807;28;20046;-84
2021/03/20 03:04:01;;;;;;;13.07;6.53;;;;;;;;;;4976780;28;20077;-83
2021/03/20 03:06:29;;;;;;;11.98;7.00;;;;;;;;;;4969642;28;20106;-83
2021/03/20 03:08:58;;;;;;;11.90;6.05;;;;;;;;;;4969873;28;20047;-83
2021/03/20 03:11:29;;;;;;;13.77;6.90;;;;;;;;;;4970652;28;20074;-84
2021/03/20 03:13:58;;;;;;;12.85;6.95;;;;;;;;;;4977541;28;20478;-83
2021/03/20 03:16:28;;;;;;;10.73;6.82;;;;;;;;;;4977333;28;20050;-83
2021/03/20 03:18:56;;;;;;;13.75;8.25;;;;;;;;;;4976582;28;20050;-83
2021/03/20 03:21:25;;;;;;;12.40;6.95;;;;;;;;;;4975133;28;20073;-83
2021/03/20 03:23:51;;;;;;;12.15;7.07;;;;;;;;;;4958341;29;20439;-83
2021/03/20 03:26:20;;;;;;;10.20;6.47;;;;;;;;;;4966076;28;20046;-83
2021/03/20 03:28:48;;;;;;;11.35;7.22;;;;;;;;;;4977551;28;20147;-83
2021/03/20 03:31:17;;;;;;;10.88;6.65;;;;;;;;;;4982211;28;20074;-83
2021/03/20 03:33:47;;;;;;;13.80;7.60;;;;;;;;;;4997269;28;20379;-83
2021/03/20 03:36:13;;;;;;;10.70;6.10;;;;;;;;;;4975627;28;20054;-83
2021/03/20 03:38:45;;;;;;;13.38;7.45;;;;;;;;;;4975904;28;20043;-83
2021/03/20 03:41:13;;;;;;;11.50;6.90;;;;;;;;;;4988445;28;20513;-82
2021/03/20 03:43:40;;;;;;;12.57;7.53;;;;;;;;;;4981694;28;20081;-83
2021/03/20 03:46:06;;;;;;;12.50;6.55;;;;;;;;;;4961845;28;20051;-80
2021/03/20 03:48:32;;;;;;;11.75;6.40;;;;;;;;;;4971637;28;20530;-81
2021/03/20 03:51:11;;;;;;;12.35;7.65;;;;;;;;;;4976474;28;20047;-83
2021/03/20 03:53:37;;;;;;;12.38;7.13;;;;;;;;;;4973929;28;20046;-83
2021/03/20 03:56:12;;;;;;;10.30;6.18;;;;;;;;;;4989069;28;20051;-83
2021/03/20 03:58:47;;;;;;;11.70;7.15;;;;;;;;;;4976851;28;20051;-83
2021/03/20 04:01:19;;;;;;;11.27;6.53;;;;;;;;;;4977040;28;20093;-84
2021/03/20 04:03:58;;;;;;;12.05;6.82;;;;;;;;;;4984952;28;20050;-83
2021/03/20 04:06:44;;;;;;;13.75;7.57;;;;;;;;;;4969542;28;20043;-83
2021/03/20 04:09:20;;;;;;;12.52;6.75;;;;;;;;;;4976781;28;20070;-82
2021/03/20 04:11:52;;;;;;;11.38;6.55;;;;;;;;;;4980065;28;20054;-83
2021/03/20 04:14:22;;;;;;;11.43;6.47;;;;;;;;;;4989455;28;20058;-83
2021/03/20 04:16:52;;;;;;;13.25;7.07;;;;;;;;;;4977980;28;20403;-82
2021/03/20 04:19:24;;;;;;;12.75;7.07;;;;;;;;;;4960169;29;20047;-83
2021/03/20 04:21:52;;;;;;;11.00;6.78;;;;;;;;;;4965845;28;20055;-82
2021/03/20 04:24:21;;;;;;;13.02;6.13;;;;;;;;;;4983183;28;20051;-83
2021/03/20 04:26:51;;;;;;;11.82;6.88;;;;;;;;;;4978688;28;20125;-83
2021/03/20 04:29:27;;;;;;;11.95;7.22;;;;;;;;;;4980369;28;20058;-82
2021/03/20 04:31:57;;;;;;;12.32;7.43;;;;;;;;;;4977603;28;20059;-83
2021/03/20 04:34:29;;;;;;;10.68;6.63;;;;;;;;;;4972264;28;20051;-83
2021/03/20 04:36:59;;;;;;;10.68;6.78;;;;;;;;;;4976447;28;20070;-83
2021/03/20 04:39:28;;;;;;;10.90;6.25;;;;;;;;;;4979720;28;20054;-83
2021/03/20 04:41:55;;;;;;;13.23;6.95;;;;;;;;;;4979188;28;20051;-83
2021/03/20 04:44:22;;;;;;;10.35;6.30;;;;;;;;;;4978920;28;20046;-83
2021/03/20 04:46:48;;;;;;;10.07;6.40;;;;;;;;;;4971415;28;20100;-83
2021/03/20 04:49:25;;;;;;;11.30;6.45;;;;;;;;;;4974280;28;20058;-83
2021/03/20 04:51:58;;;;;;;10.70;5.75;;;;;;;;;;4962540;28;20051;-82
2021/03/20 04:54:25;;;;;;;12.00;5.72;;;;;;;;;;4968966;28;20047;-83
2021/03/20 04:56:55;;;;;;;9.88;5.72;;;;;;;;;;4963592;28;20047;-83
2021/03/20 04:59:37;;;;;;;13.38;6.63;;;;;;;;;;4976719;28;20043;-83
2021/03/20 05:02:09;;;;;;;11.10;6.13;;;;;;;;;;4972626;28;20155;-83
2021/03/20 05:04:39;;;;;;;10.90;5.50;;;;;;;;;;4977992;28;20458;-83
2021/03/20 05:07:06;;;;;;;9.85;6.15;;;;;;;;;;4969415;28;20142;-83
2021/03/20 05:09:32;;;;;;;10.00;6.50;;;;;;;;;;4971829;28;20130;-82
2021/03/20 05:12:00;;;;;;;12.13;6.47;;;;;;;;;;4972034;28;20039;-82
2021/03/20 05:14:31;;;;;;;12.07;6.85;;;;;;;;;;4981043;28;20051;-81
2021/03/20 05:16:59;;;;;;;12.73;7.25;;;;;;;;;;4984726;28;20047;-82
2021/03/20 05:19:27;;;;;;;10.98;5.95;;;;;;;;;;4977727;28;20133;-83
2021/03/20 05:21:54;;;;;;;11.23;5.68;;;;;;;;;;4970536;28;20099;-82
2021/03/20 05:24:23;;;;;;;10.55;6.03;;;;;;;;;;4982152;28;20059;-82
2021/03/20 05:26:49;;;;;;;8.23;5.00;;;;;;;;;;4974754;28;20066;-82
2021/03/20 05:29:16;;;;;;;7.70;4.40;;;;;;;;;;4968634;28;20054;-82
2021/03/20 05:31:42;;;;;;;10.43;5.13;;;;;;;;;;4962585;28;20047;-82
2021/03/20 05:34:22;;;;;;;6.63;4.22;;;;;;;;;;4975822;28;20088;-82
2021/03/20 05:36:48;;;;;;;7.13;4.22;;;;;;;;;;4969388;28;20047;-82
2021/03/20 05:39:15;;;;;;;8.18;4.63;;;;;;;;;;4967750;28;20051;-82
2021/03/20 05:42:08;;;;;;;7.55;3.72;;;;;;;;;;4979305;28;20051;-82
2021/03/20 05:44:52;;;;;;;7.68;4.15;;;;;;;;;;4976238;28;20046;-82
2021/03/20 05:47:26;;;;;;;8.65;4.82;;;;;;;;;;4981890;28;20055;-82
2021/03/20 05:50:00;;;;;;;8.77;4.20;;;;;;;;;;4980220;28;20051;-82
2021/03/20 05:52:35;;;;;;;7.97;4.18;;;;;;;;;;4978686;28;20495;-82
2021/03/20 05:55:12;;;;;;;7.82;4.25;;;;;;;;;;4979947;28;20597;-82
2021/03/20 05:57:42;;;;;;;9.45;4.45;;;;;;;;;;4960744;29;20044;-83
2021/03/20 06:00:19;;;;;;;8.65;4.13;;;;;;;;;;4976230;28;20475;-82
2021/03/20 06:03:06;;;;;;;7.50;4.18;;;;;;;;;;4980927;28;20403;-83
2021/03/20 06:05:43;;;;;;;12.75;4.97;;;;;;;;;;4983319;28;20066;-84
2021/03/20 06:08:28;;;;;;;8.73;5.30;;;;;;;;;;4986591;28;20054;-83
2021/03/20 06:10:57;;;;;;;9.55;5.30;;;;;;;;;;4981904;28;20090;-83
2021/03/20 06:13:51;;;;;;;9.07;5.47;;;;;;;;;;4980260;28;20055;-83
2021/03/20 06:16:24;;;;;;;9.88;5.18;;;;;;;;;;4980069;28;20046;-81
2021/03/20 06:19:16;;;;;;;7.63;4.60;;;;;;;;;;4990539;28;20375;-84
2021/03/20 06:21:51;;;;;;;8.77;5.35;;;;;;;;;;4977572;28;20073;-81
2021/03/20 06:24:31;;;;;;;9.50;6.35;;;;;;;;;;4959707;29;20043;-80
2021/03/20 06:26:58;;;;;;;9.57;5.57;;;;;;;;;;4978125;28;20058;-81
2021/03/20 06:29:30;;;;;;;10.90;5.97;;;;;;;;;;4977691;28;20105;-83
2021/03/20 06:32:04;;;;;;;10.27;6.38;;;;;;;;;;4978404;28;20050;-81
2021/03/20 06:34:34;;;;;;;7.93;5.50;;;;;;;;;;4978593;28;20065;-81
2021/03/20 06:37:05;;;;;;;14.82;11.57;;;;;;;;;;4981116;28;20058;-81
2021/03/20 06:39:34;;;;;;;25.17;20.23;;;;;;;;;;4982368;28;20051;-82
2021/03/20 06:42:05;;;;;;;25.08;18.35;;;;;;;;;;4973825;28;20046;-81
2021/03/20 06:44:36;;;;;;;20.45;15.52;;;;;;;;;;4966961;28;20050;-82
2021/03/20 06:47:03;;;;;;;12.93;8.00;;;;;;;;;;4971738;28;20040;-83
2021/03/20 06:49:34;;;;;;;10.95;7.85;;;;;;;;;;4970792;28;20059;-82
2021/03/20 06:52:03;;;;;;;12.75;6.05;;;;;;;;;;4984821;28;20022;-82
2021/03/20 06:54:37;;;;;;;10.75;8.50;;;;;;;;;;5110152;27;722818;-83
2021/03/20 06:57:03;;;;;;;9.68;5.57;;;;;;;;;;5097593;28;20052;-82
2021/03/20 06:59:30;;;;;;;8.88;6.68;;;;;;;;;;5096669;28;20080;-81
2021/03/20 07:02:01;;;;;;;15.23;8.35;;;;;;;;;;5075497;28;20052;-81
2021/03/20 07:05:03;;;;;;;11.70;8.80;;;;;;;;;;5074913;28;20090;-83
2021/03/20 07:07:46;;;;;;;13.18;8.55;;;;;;;;;;5072204;28;20049;-82
2021/03/20 07:10:28;;;;;;;14.85;11.15;;;;;;;;;;5072042;28;20045;-82
2021/03/20 07:13:17;;;;;;;9.15;6.18;;;;;;;;;;5062762;28;20044;-83
2021/03/20 07:15:44;;;;;;;9.88;5.82;;;;;;;;;;5069874;28;20055;-82
2021/03/20 07:18:31;;;;;;;8.88;4.57;;;;;;;;;;5057773;28;20052;-81
2021/03/20 07:20:59;;;;;;;6.65;4.53;;;;;;;;;;5071223;28;20045;-82
2021/03/20 07:23:25;;;;;;;6.15;3.80;;;;;;;;;;5057704;28;20048;-82
2021/03/20 07:25:54;;;;;;;7.95;4.47;;;;;;;;;;5071879;28;20053;-82
2021/03/20 07:28:23;;;;;;;7.07;4.53;;;;;;;;;;5059817;28;20052;-82
2021/03/20 07:30:52;;;;;;;8.05;4.20;;;;;;;;;;5044562;28;20059;-83
2021/03/20 07:33:30;;;;;;;9.90;5.10;;;;;;;;;;5072330;28;20529;-83
2021/03/20 07:36:15;;;;;;;9.95;4.43;;;;;;;;;;5070541;28;20041;-82
2021/03/20 07:38:42;;;;;;;7.82;4.72;;;;;;;;;;5057584;28;20098;-82
2021/03/20 07:41:10;;;;;;;7.63;4.13;;;;;;;;;;5073721;28;20054;-82
2021/03/20 07:43:37;;;;;;;7.03;4.03;;;;;;;;;;5069129;28;20045;-82
2021/03/20 07:46:09;;;;;;;8.38;4.53;;;;;;;;;;5062641;28;20049;-82
2021/03/20 07:48:35;;;;;;;11.95;4.53;;;;;;;;;;5068114;28;20045;-82
2021/03/20 07:51:04;;;;;;;7.32;4.20;;;;;;;;;;5076096;28;20099;-82
2021/03/20 07:53:30;;;;;;;7.45;5.03;;;;;;;;;;5076656;28;20114;-82
2021/03/20 07:56:00;;;;;;;9.90;6.32;;;;;;;;;;5077314;28;20041;-83
2021/03/20 07:58:33;;;;;;;9.65;6.57;;;;;;;;;;5073955;28;20044;-82
2021/03/20 08:01:00;;;;;;;7.22;4.70;;;;;;;;;;5072226;28;20488;-82
2021/03/20 08:03:29;;;;;;;7.35;4.88;;;;;;;;;;5072846;28;20045;-82
2021/03/20 08:06:09;;;;;;;7.00;4.63;;;;;;;;;;5059848;28;20045;-82
2021/03/20 08:08:35;;;;;;;8.27;4.78;;;;;;;;;;5062822;28;20041;-82
2021/03/20 08:11:01;;;;;;;8.20;4.60;;;;;;;;;;5058502;28;20074;-82
2021/03/20 08:13:36;;;;;;;8.98;5.75;;;;;;;;;;5057680;28;20045;-82
2021/03/20 08:16:03;;;;;;;6.03;4.32;;;;;;;;;;5059058;28;20041;-83
2021/03/20 08:18:33;;;;;;;8.23;4.55;;;;;;;;;;5023808;28;20065;-83
2021/03/20 08:21:16;;;;;;;6.32;4.35;;;;;;;;;;5044442;28;20041;-83
2021/03/20 08:23:57;;;;;;;9.77;4.25;;;;;;;;;;5059121;28;20064;-82
2021/03/20 08:26:29;;;;;;;5.80;4.55;;;;;;;;;;5048863;28;20055;-82
2021/03/20 08:28:58;;;;;;;7.93;4.63;;;;;;;;;;5053441;28;20041;-83
2021/03/20 08:31:40;;;;;;;6.55;4.28;;;;;;;;;;5048443;28;20045;-82
2021/03/20 08:34:31;;;;;;;7.68;5.82;;;;;;;;;;5060017;28;20056;-83
2021/03/20 08:37:23;;;;;;;6.15;4.32;;;;;;;;;;5049184;28;20515;-83
2021/03/20 08:40:07;;;;;;;7.13;4.28;;;;;;;;;;5042445;28;20053;-83
2021/03/20 08:42:42;;;;;;;8.38;5.13;;;;;;;;;;5058798;28;20515;-82
2021/03/20 08:45:13;;;;;;;6.90;4.13;;;;;;;;;;5058871;28;20045;-84
2021/03/20 08:48:23;;;;;;;5.43;4.00;;;;;;;;;;5054204;28;20049;-83
2021/03/20 08:51:01;;;;;;;9.27;4.28;;;;;;;;;;5054001;28;20041;-82
2021/03/20 08:53:30;;;;;;;7.80;4.60;;;;;;;;;;5058887;28;20099;-83
2021/03/20 08:56:01;;;;;;;6.55;4.80;;;;;;;;;;5048805;28;20042;-83
2021/03/20 08:58:40;;;;;;;8.52;4.25;;;;;;;;;;5055039;28;20087;-82
2021/03/20 09:01:12;;;;;;;5.93;4.03;;;;;;;;;;5055749;28;20094;-82
2021/03/20 09:03:40;;;;;;;6.18;4.00;;;;;;;;;;5043835;28;20080;-82
2021/03/20 09:06:15;;;;;;;8.13;4.40;;;;;;;;;;5070698;28;20048;-82
2021/03/20 09:08:42;;;;;;;6.45;4.32;;;;;;;;;;5059284;28;20449;-82
2021/03/20 09:11:22;;;;;;;5.43;4.10;;;;;;;;;;5057858;28;20132;-82
2021/03/20 09:13:50;;;;;;;7.03;4.45;;;;;;;;;;5053329;28;20067;-83
2021/03/20 09:16:30;;;;;;;7.32;4.72;;;;;;;;;;5052991;28;20044;-83
2021/03/20 09:18:56;;;;;;;7.25;4.65;;;;;;;;;;5054653;28;20065;-84
2021/03/20 09:21:23;;;;;;;5.78;4.25;;;;;;;;;;5064808;28;20638;-86
2021/03/20 09:23:57;;;;;;;5.90;4.40;;;;;;;;;;5067635;28;20045;-88
2021/03/20 09:26:41;;;;;;;6.88;4.45;;;;;;;;;;5059895;28;20052;-84
2021/03/20 09:29:12;;;;;;;6.28;4.18;;;;;;;;;;5065160;28;20052;-86
2021/03/20 09:32:03;;;;;;;7.50;4.95;;;;;;;;;;5067118;28;20048;-84
2021/03/20 09:34:37;;;;;;;7.70;5.13;;;;;;;;;;5064029;28;20128;-84
2021/03/20 09:37:06;;;;;;;10.35;5.60;;;;;;;;;;5058521;28;20124;-85
2021/03/20 09:39:39;;;;;;;6.13;4.20;;;;;;;;;;5064848;28;20633;-87
2021/03/20 09:42:32;;;;;;;7.10;4.10;;;;;;;;;;5026076;28;20487;-84
2021/03/20 09:44:59;;;;;;;7.75;3.92;;;;;;;;;;5042619;28;20044;-84
2021/03/20 09:47:35;;;;;;;5.55;3.47;;;;;;;;;;5065052;28;20050;-84
2021/03/20 09:50:06;;;;;;;5.18;3.58;;;;;;;;;;5052023;28;20559;-84
2021/03/20 09:52:47;;;;;;;7.38;4.35;;;;;;;;;;5060072;28;20051;-84
2021/03/20 09:55:40;;;;;;;6.97;4.05;;;;;;;;;;5055583;28;20090;-83
2021/03/20 09:58:08;;;;;;;6.32;3.80;;;;;;;;;;5059606;28;20041;-83
2021/03/20 10:01:11;;;;;;;6.22;4.28;;;;;;;;;;5061780;28;20036;-85
2021/03/20 10:04:13;;;;;;;7.53;4.00;;;;;;;;;;5062912;28;20056;-90
2021/03/20 10:06:41;;;;;;;8.77;4.55;;;;;;;;;;5050753;28;20041;-84
2021/03/20 10:09:26;;;;;;;5.80;3.92;;;;;;;;;;5042507;28;20496;-84
2021/03/20 10:12:15;;;;;;;6.63;4.70;;;;;;;;;;5059879;28;20447;-84
2021/03/20 10:15:16;;;;;;;5.40;3.42;;;;;;;;;;5055657;28;20041;-83
2021/03/20 10:18:20;;;;;;;6.22;3.67;;;;;;;;;;5062601;28;20512;-82
2021/03/20 10:21:08;;;;;;;6.68;3.92;;;;;;;;;;5058614;28;20124;-82
2021/03/20 10:23:39;;;;;;;5.13;3.00;;;;;;;;;;5057428;28;20447;-82
2021/03/20 10:26:15;;;;;;;4.30;2.88;;;;;;;;;;5062955;28;20041;-82
2021/03/20 10:28:44;;;;;;;5.65;3.10;;;;;;;;;;5058578;28;20045;-82
2021/03/20 10:31:11;;;;;;;4.93;3.53;;;;;;;;;;5069374;28;20543;-83
2021/03/20 10:33:40;;;;;;;4.35;2.72;;;;;;;;;;5046846;28;20040;-83
2021/03/20 10:36:08;;;;;;;5.22;3.30;;;;;;;;;;5060115;28;20053;-83
2021/03/20 10:38:35;;;;;;;6.28;3.05;;;;;;;;;;5056845;28;20045;-83
2021/03/20 10:41:05;;;;;;;4.63;2.80;;;;;;;;;;5059642;28;20067;-83
2021/03/20 10:43:36;;;;;;;4.75;2.30;;;;;;;;;;5063388;28;20044;-84
2021/03/20 10:46:02;;;;;;;5.57;3.13;;;;;;;;;;5062460;28;20041;-82
2021/03/20 10:48:28;;;;;;;7.97;3.30;;;;;;;;;;5037706;28;20048;-83
2021/03/20 10:50:58;;;;;;;5.03;3.40;;;;;;;;;;5069057;28;20040;-83
2021/03/20 10:53:26;;;;;;;4.20;2.88;;;;;;;;;;5061649;28;20452;-81
2021/03/20 10:55:54;;;;;;;6.57;3.55;;;;;;;;;;5044953;28;20056;-81
2021/03/20 10:58:27;;;;;;;5.18;3.58;;;;;;;;;;5064085;28;20090;-81
2021/03/20 11:00:53;;;;;;;7.03;3.22;;;;;;;;;;5062544;28;20045;-82
2021/03/20 11:03:27;;;;;;;7.05;3.58;;;;;;;;;;5065887;28;20041;-81
2021/03/20 11:05:53;;;;;;;5.28;2.90;;;;;;;;;;5058621;28;20053;-82
2021/03/20 11:08:28;;;;;;;4.82;3.28;;;;;;;;;;5051316;28;20041;-83
2021/03/20 11:11:09;;;;;;;5.28;3.38;;;;;;;;;;5058873;28;21109;-83
2021/03/20 11:13:37;;;;;;;4.68;2.92;;;;;;;;;;5055749;28;20048;-81
2021/03/20 11:16:07;;;;;;;4.38;3.00;;;;;;;;;;5060328;28;20052;-81
2021/03/20 11:18:40;;;;;;;6.15;3.35;;;;;;;;;;5056182;28;20052;-83
2021/03/20 11:21:18;;;;;;;4.70;3.10;;;;;;;;;;5055772;28;20138;-82
2021/03/20 11:23:52;;;;;;;5.25;2.90;;;;;;;;;;5063247;28;20419;-83
2021/03/20 11:26:35;;;;;;;5.03;3.03;;;;;;;;;;5053006;28;20037;-84
2021/03/20 11:29:03;;;;;;;4.35;2.85;;;;;;;;;;5060271;28;20064;-82
2021/03/20 11:31:36;;;;;;;3.95;2.80;;;;;;;;;;5058702;28;20045;-83
2021/03/20 11:34:02;;;;;;;3.65;2.72;;;;;;;;;;5061398;28;20048;-82
2021/03/20 11:36:28;;;;;;;5.10;2.42;;;;;;;;;;5042788;28;20049;-84
2021/03/20 11:38:56;;;;;;;4.05;2.35;;;;;;;;;;5058350;28;20116;-83
2021/03/20 11:41:25;;;;;;;4.50;2.90;;;;;;;;;;5061499;28;20098;-83
2021/03/20 11:43:59;;;;;;;3.97;2.65;;;;;;;;;;5070343;28;20051;-82
2021/03/20 11:46:27;;;;;;;7.15;3.40;;;;;;;;;;5056966;28;20451;-82
2021/03/20 11:48:55;;;;;;;4.20;2.63;;;;;;;;;;5062696;28;20044;-82
2021/03/20 11:51:24;;;;;;;4.93;3.30;;;;;;;;;;5060344;28;20052;-83
2021/03/20 11:53:54;;;;;;;5.00;3.13;;;;;;;;;;5051730;28;20409;-82
2021/03/20 11:56:24;;;;;;;5.25;3.20;;;;;;;;;;5063551;28;20131;-81
2021/03/20 11:58:52;;;;;;;5.78;3.88;;;;;;;;;;5056390;28;20041;-81
2021/03/20 12:01:27;;;;;;;6.22;3.60;;;;;;;;;;5029811;28;20046;-82
2021/03/20 12:03:54;;;;;;;4.88;2.78;;;;;;;;;;5057517;28;20047;-83
2021/03/20 12:06:25;;;;;;;4.80;2.88;;;;;;;;;;5062867;28;20037;-82
2021/03/20 12:08:54;;;;;;;6.63;3.03;;;;;;;;;;5056348;28;20041;-83
2021/03/20 12:11:23;;;;;;;4.05;2.90;;;;;;;;;;5057338;28;20040;-83
2021/03/20 12:13:51;;;;;;;5.38;3.00;;;;;;;;;;5061927;28;20098;-83
2021/03/20 12:16:29;;;;;;;4.35;3.03;;;;;;;;;;5065003;28;20041;-82
2021/03/20 12:19:10;;;;;;;5.43;3.40;;;;;;;;;;5051811;28;20128;-83
2021/03/20 12:22:01;;;;;;;4.70;2.60;;;;;;;;;;5066715;28;20067;-86
2021/03/20 12:24:31;;;;;;;5.47;3.28;;;;;;;;;;5063970;28;20489;-85
2021/03/20 12:27:27;;;;;;;7.60;3.40;;;;;;;;;;5064406;28;20041;-80
2021/03/20 12:29:57;;;;;;;7.47;2.58;;;;;;;;;;5069727;28;20053;-84
2021/03/20 12:32:33;;;;;;;6.05;2.70;;;;;;;;;;5067883;28;20042;-82
2021/03/20 12:35:23;;;;;;;5.60;2.40;;;;;;;;;;5065098;28;20041;-83
2021/03/20 12:38:04;;;;;;;6.13;2.80;;;;;;;;;;5054201;28;20049;-83
2021/03/20 12:40:32;;;;;;;6.95;2.95;;;;;;;;;;5063923;28;20049;-85
2021/03/20 12:43:00;;;;;;;4.30;2.10;;;;;;;;;;5064007;28;20104;-84
2021/03/20 12:45:29;;;;;;;4.88;2.88;;;;;;;;;;5061168;28;20068;-84
2021/03/20 12:47:55;;;;;;;4.80;2.85;;;;;;;;;;5062344;28;20041;-81
2021/03/20 12:50:22;;;;;;;4.47;2.35;;;;;;;;;;5059249;28;20045;-82
2021/03/20 12:52:48;;;;;;;4.22;2.53;;;;;;;;;;5059979;28;20045;-82
2021/03/20 12:55:14;;;;;;;6.00;2.38;;;;;;;;;;5058799;28;20074;-83
2021/03/20 12:57:40;;;;;;;4.95;2.97;;;;;;;;;;5062230;28;20499;-84
2021/03/20 13:00:11;;;;;;;5.50;2.63;;;;;;;;;;5069261;28;20042;-82
2021/03/20 13:02:38;;;;;;;5.85;2.67;;;;;;;;;;5059376;28;20059;-83
2021/03/20 13:05:07;;;;;;;5.20;2.30;;;;;;;;;;5058560;28;20045;-82
2021/03/20 13:07:33;;;;;;;4.93;2.70;;;;;;;;;;5057605;28;20066;-81
2021/03/20 13:09:59;;;;;;;5.03;2.38;;;;;;;;;;5064690;28;20068;-81
2021/03/20 13:12:25;;;;;;;3.70;2.70;;;;;;;;;;5059756;28;20139;-82
2021/03/20 13:14:51;;;;;;;5.00;2.38;;;;;;;;;;5055840;28;20037;-82
2021/03/20 13:17:18;;;;;;;4.18;2.30;;;;;;;;;;5055920;28;20048;-82
2021/03/20 13:19:44;;;;;;;4.78;2.63;;;;;;;;;;5055184;28;20411;-82
2021/03/20 13:22:10;;;;;;;4.47;2.30;;;;;;;;;;5016127;28;20049;-82
2021/03/20 13:24:36;;;;;;;3.63;2.40;;;;;;;;;;5039392;28;20044;-81
2021/03/20 13:27:03;;;;;;;5.03;2.85;;;;;;;;;;5041954;28;20388;-82
2021/03/20 13:29:29;;;;;;;7.65;3.30;;;;;;;;;;5062637;28;20073;-83
2021/03/20 13:31:55;;;;;;;7.57;3.45;;;;;;;;;;5046305;28;20432;-82
2021/03/20 13:34:23;;;;;;;5.50;2.90;;;;;;;;;;5041948;28;20103;-82
2021/03/20 13:36:49;;;;;;;3.55;2.22;;;;;;;;;;5049615;28;20404;-83
2021/03/20 13:39:16;;;;;;;5.20;2.85;;;;;;;;;;5059072;28;20040;-83
2021/03/20 13:41:42;;;;;;;4.03;2.63;;;;;;;;;;5041255;28;20037;-83
2021/03/20 13:44:09;;;;;;;3.85;2.53;;;;;;;;;;5022531;28;20103;-83
2021/03/20 13:46:36;;;;;;;5.20;2.15;;;;;;;;;;5066850;28;20051;-84
2021/03/20 13:49:03;;;;;;;3.08;2.22;;;;;;;;;;5065155;28;20543;-82
2021/03/20 13:51:29;;;;;;;5.28;2.08;;;;;;;;;;5057459;28;20128;-82
2021/03/20 13:53:55;;;;;;;3.85;2.03;;;;;;;;;;5061588;28;20040;-83
2021/03/20 13:56:21;;;;;;;4.55;2.08;;;;;;;;;;5060708;28;20059;-82
2021/03/20 13:58:47;;;;;;;5.05;2.30;;;;;;;;;;5062108;28;20132;-82
2021/03/20 14:01:14;;;;;;;2.90;2.03;;;;;;;;;;5057608;28;20052;-82
2021/03/20 14:03:40;;;;;;;4.45;2.38;;;;;;;;;;5037402;28;20052;-82
2021/03/20 14:06:06;;;;;;;4.63;2.20;;;;;;;;;;5059444;28;20057;-83
2021/03/20 14:08:33;;;;;;;4.50;2.60;;;;;;;;;;5056177;28;20065;-82
2021/03/20 14:11:01;;;;;;;4.72;2.15;;;;;;;;;;5059080;28;20793;-82
2021/03/20 14:13:28;;;;;;;4.35;2.55;;;;;;;;;;5062999;28;20041;-82
2021/03/20 14:15:54;;;;;;;2.85;1.75;;;;;;;;;;5040398;28;20412;-81
2021/03/20 14:18:22;;;;;;;23.33;12.38;;;;;;;;;;5059987;28;20048;-82
2021/03/20 14:20:50;;;;;;;47.47;24.52;;;;;;;;;;5041183;28;20045;-82
2021/03/20 14:23:18;;;;;;;20.33;11.00;;;;;;;;;;5058152;28;20053;-81
2021/03/20 14:25:45;;;;;;;9.50;5.68;;;;;;;;;;5063282;28;20053;-81
2021/03/20 14:28:12;;;;;;;6.30;3.25;;;;;;;;;;5066786;28;20041;-84
2021/03/20 14:30:41;;;;;;;5.60;3.25;;;;;;;;;;5058880;28;20044;-82
2021/03/20 14:33:08;;;;;;;5.32;2.40;;;;;;;;;;5051938;28;20500;-83
2021/03/20 14:35:35;;;;;;;5.28;2.40;;;;;;;;;;5051972;28;20121;-81
2021/03/20 14:38:01;;;;;;;3.80;2.17;;;;;;;;;;5046587;28;20044;-83
2021/03/20 14:40:30;;;;;;;5.25;2.45;;;;;;;;;;5037771;28;20103;-80
2021/03/20 14:42:57;;;;;;;3.45;1.95;;;;;;;;;;5054685;28;20044;-83
2021/03/20 14:45:23;;;;;;;5.63;2.10;;;;;;;;;;5058111;28;20051;-84
2021/03/20 14:47:49;;;;;;;4.50;2.50;;;;;;;;;;5051866;28;20044;-83
2021/03/20 14:50:21;;;;;;;5.10;1.98;;;;;;;;;;5042416;28;20041;-82
2021/03/20 14:52:47;;;;;;;5.18;2.00;;;;;;;;;;5037678;28;20534;-82
2021/03/20 14:55:14;;;;;;;3.95;2.38;;;;;;;;;;5043768;28;20056;-83
2021/03/20 14:57:40;;;;;;;3.30;2.17;;;;;;;;;;5053352;28;20041;-83
2021/03/20 15:00:11;;;;;;;5.32;2.65;;;;;;;;;;5052666;28;20040;-82
2021/03/20 15:02:37;;;;;;;5.20;2.28;;;;;;;;;;5065890;28;20051;-82
2021/03/20 15:05:04;;;;;;;3.97;2.35;;;;;;;;;;5055716;28;20049;-83